Latest Weather Observations for South Channel Island

IDV60801

Issued at 4:42 am EST Monday 26 August 2019 (issued every 10 minutes, with the page automatically refreshed every 10 minutes)

About weather observations | Map of weather stations | Latest weather observations for VIC | Other Formats
Station Details ID: 086344 Name: SOUTH CHANNEL ISLAND Lat: -38.31 Lon: 144.80 Height: 9.0 m
Data from the previous 72 hours. | See also: Recent months at South Channel Island
Date/Time
EST
Temp
°C
App
Temp
°C
Dew
Point
°C
Rel
Hum
%
Delta-T
°C
Wind Press
QNH
hPa
Press
MSL
hPa
Rain since
9am
mm
Dir  Spd
km/h
Gust
km/h
Spd
kts
Gust
kts
26/04:30am - - - - - W 22 26 12 14 - - -
26/04:00am - - - - - W 17 24 9 13 - - -
26/03:30am - - - - - W 22 28 12 15 - - -
26/03:00am - - - - - W 28 30 15 16 - - -
26/02:30am - - - - - W 26 30 14 16 - - -
26/02:00am - - - - - W 19 22 10 12 - - -
26/01:30am - - - - - W 17 20 9 11 - - -
26/01:00am - - - - - SW 22 28 12 15 - - -
26/12:30am - - - - - W 24 28 13 15 - - -
26/12:00am - - - - - W 22 26 12 14 - - -
 
Date/Time
EST
Temp
°C
App
Temp
°C
Dew
Point
°C
Rel
Hum
%
Delta-T
°C
Wind Press
QNH
hPa
Press
MSL
hPa
Rain since
9am
mm
Dir  Spd
km/h
Gust
km/h
Spd
kts
Gust
kts
25/11:30pm - - - - - W 24 26 13 14 - - -
25/11:00pm - - - - - W 24 26 13 14 - - -
25/10:30pm - - - - - W 22 26 12 14 - - -
25/10:00pm - - - - - W 20 26 11 14 - - -
25/09:30pm - - - - - WSW 26 28 14 15 - - -
25/09:00pm - - - - - WSW 20 26 11 14 - - -
25/08:30pm - - - - - SW 17 19 9 10 - - -
25/08:00pm - - - - - SW 22 26 12 14 - - -
25/07:30pm - - - - - SW 26 30 14 16 - - -
25/07:00pm - - - - - SW 28 32 15 17 - - -
25/06:30pm - - - - - SW 32 35 17 19 - - -
25/06:00pm - - - - - SW 28 33 15 18 - - -
25/05:30pm - - - - - SW 26 33 14 18 - - -
25/05:00pm - - - - - SW 28 32 15 17 - - -
25/04:30pm - - - - - SW 28 35 15 19 - - -
25/04:00pm - - - - - SW 28 35 15 19 - - -
25/03:30pm - - - - - SW 26 33 14 18 - - -
25/03:00pm - - - - - SW 30 33 16 18 - - -
25/02:30pm - - - - - SSW 28 32 15 17 - - -
25/02:00pm - - - - - SW 22 30 12 16 - - -
25/01:30pm - - - - - SW 19 24 10 13 - - -
25/01:00pm - - - - - SSW 37 43 20 23 - - -
25/12:55pm - - - - - SW 35 43 19 23 - - -
25/12:30pm - - - - - WSW 22 30 12 16 - - -
25/12:00pm - - - - - SSW 13 17 7 9 - - -
25/11:30am - - - - - WSW 32 41 17 22 - - -
25/11:19am - - - - - WSW 32 41 17 22 - - -
25/11:00am - - - - - WSW 19 22 10 12 - - -
25/10:30am - - - - - W 20 28 11 15 - - -
25/10:00am - - - - - WSW 20 26 11 14 - - -
25/09:30am - - - - - WNW 24 32 13 17 - - -
25/09:00am - - - - - W 35 41 19 22 - - -
25/08:30am - - - - - W 28 32 15 17 - - -
25/08:00am - - - - - W 33 41 18 22 - - -
25/07:30am - - - - - W 30 33 16 18 - - -
25/07:00am - - - - - W 32 35 17 19 - - -
25/06:30am - - - - - W 33 37 18 20 - - -
25/06:00am - - - - - WNW 30 37 16 20 - - -
25/05:30am - - - - - W 35 41 19 22 - - -
25/05:00am - - - - - W 35 37 19 20 - - -
25/04:30am - - - - - W 35 41 19 22 - - -
25/04:00am - - - - - W 37 41 20 22 - - -
25/03:30am - - - - - W 35 41 19 22 - - -
25/03:00am - - - - - WSW 26 30 14 16 - - -
25/02:30am - - - - - WSW 32 41 17 22 - - -
25/02:00am - - - - - W 39 50 21 27 - - -
25/01:30am - - - - - W 35 39 19 21 - - -
25/01:00am - - - - - W 33 39 18 21 - - -
25/12:30am - - - - - W 32 35 17 19 - - -
25/12:00am - - - - - WNW 33 37 18 20 - - -
 
Date/Time
EST
Temp
°C
App
Temp
°C
Dew
Point
°C
Rel
Hum
%
Delta-T
°C
Wind Press
QNH
hPa
Press
MSL
hPa
Rain since
9am
mm
Dir  Spd
km/h
Gust
km/h
Spd
kts
Gust
kts
24/11:30pm - - - - - WNW 35 39 19 21 - - -
24/11:00pm - - - - - WNW 37 39 20 21 - - -
24/10:30pm - - - - - W 37 41 20 22 - - -
24/10:00pm - - - - - W 35 39 19 21 - - -
24/09:30pm - - - - - W 37 44 20 24 - - -
24/09:00pm - - - - - WSW 43 56 23 30 - - -
24/08:30pm - - - - - WSW 43 54 23 29 - - -
24/08:00pm - - - - - SW 50 59 27 32 - - -
24/07:36pm - - - - - WSW 39 57 21 31 - - -
24/07:30pm - - - - - W 41 50 22 27 - - -
24/07:00pm - - - - - W 50 56 27 30 - - -
24/06:30pm - - - - - W 50 56 27 30 - - -
24/06:00pm - - - - - W 57 65 31 35 - - -
24/05:42pm - - - - - W 65 83 35 45 - - -
24/05:34pm - - - - - WNW 44 78 24 42 - - -
24/05:33pm - - - - - NW 41 72 22 39 - - -
24/05:30pm - - - - - NW 39 44 21 24 - - -
24/05:00pm - - - - - NNW 37 43 20 23 - - -
24/04:30pm - - - - - NNW 33 43 18 23 - - -
24/04:00pm - - - - - N 41 48 22 26 - - -
24/03:30pm - - - - - N 46 54 25 29 - - -
24/03:00pm - - - - - N 48 54 26 29 - - -
24/02:30pm - - - - - N 48 54 26 29 - - -
24/02:00pm - - - - - NNW 52 59 28 32 - - -
24/01:30pm - - - - - N 37 44 20 24 - - -
24/01:00pm - - - - - N 50 54 27 29 - - -
24/12:30pm - - - - - N 50 57 27 31 - - -
24/12:00pm - - - - - N 41 48 22 26 - - -
24/11:30am - - - - - N 46 52 25 28 - - -
24/11:00am - - - - - N 52 59 28 32 - - -
24/10:30am - - - - - N 57 67 31 36 - - -
24/10:00am - - - - - N 59 70 32 38 - - -
24/09:30am - - - - - N 61 70 33 38 - - -
24/09:00am - - - - - N 63 72 34 39 - - -
24/08:30am - - - - - N 59 70 32 38 - - -
24/08:00am - - - - - N 61 72 33 39 - - -
24/07:30am - - - - - N 57 69 31 37 - - -
24/07:00am - - - - - N 57 72 31 39 - - -
24/06:30am - - - - - N 57 72 31 39 - - -
24/06:00am - - - - - N 54 65 29 35 - - -
24/05:30am - - - - - N 54 61 29 33 - - -
24/05:00am - - - - - N 54 65 29 35 - - -
24/04:30am - - - - - N 54 63 29 34 - - -
24/04:00am - - - - - N 56 63 30 34 - - -
24/03:30am - - - - - N 54 61 29 33 - - -
24/03:00am - - - - - N 50 57 27 31 - - -
24/02:30am - - - - - N 50 59 27 32 - - -
24/02:00am - - - - - N 50 59 27 32 - - -
24/01:30am - - - - - N 46 52 25 28 - - -
24/01:00am - - - - - N 43 52 23 28 - - -
24/12:30am - - - - - N 43 50 23 27 - - -
24/12:00am - - - - - N 41 50 22 27 - - -
 
Date/Time
EST
Temp
°C
App
Temp
°C
Dew
Point
°C
Rel
Hum
%
Delta-T
°C
Wind Press
QNH
hPa
Press
MSL
hPa
Rain since
9am
mm
Dir  Spd
km/h
Gust
km/h
Spd
kts
Gust
kts
23/11:30pm - - - - - N 44 52 24 28 - - -
23/11:00pm - - - - - N 46 52 25 28 - - -
23/10:30pm - - - - - N 39 46 21 25 - - -
23/10:00pm - - - - - N 37 44 20 24 - - -
23/09:30pm - - - - - N 35 41 19 22 - - -
23/09:00pm - - - - - N 35 41 19 22 - - -
23/08:30pm - - - - - NNW 37 41 20 22 - - -
23/08:00pm - - - - - NNW 32 41 17 22 - - -
23/07:30pm - - - - - NNW 33 37 18 20 - - -
23/07:00pm - - - - - NNW 26 32 14 17 - - -
23/06:30pm - - - - - NNW 20 24 11 13 - - -
23/06:00pm - - - - - N 22 26 12 14 - - -
23/05:30pm - - - - - N 26 28 14 15 - - -
23/05:00pm - - - - - N 20 22 11 12 - - -
23/04:30pm - - - - - NE 17 19 9 10 - - -
23/04:00pm - - - - - NE 13 15 7 8 - - -
23/03:30pm - - - - - NNE 11 13 6 7 - - -
23/03:00pm - - - - - N 9 11 5 6 - - -
23/02:30pm - - - - - N 13 15 7 8 - - -
23/02:00pm - - - - - N 17 19 9 10 - - -
23/01:30pm - - - - - NNW 24 28 13 15 - - -
23/01:00pm - - - - - N 28 30 15 16 - - -
23/12:30pm - - - - - N 26 33 14 18 - - -
23/12:00pm - - - - - NNW 26 32 14 17 - - -
23/11:30am - - - - - NW 24 30 13 16 - - -
23/11:00am - - - - - NW 26 30 14 16 - - -
23/10:30am - - - - - NW 22 26 12 14 - - -
23/10:00am - - - - - WNW 28 32 15 17 - - -
23/09:30am - - - - - WNW 24 30 13 16 - - -
23/09:00am - - - - - NW 20 26 11 14 - - -
23/08:30am - - - - - WNW 24 26 13 14 - - -
23/08:00am - - - - - WNW 26 30 14 16 - - -
23/07:30am - - - - - WNW 24 26 13 14 - - -
23/07:00am - - - - - WNW 22 24 12 13 - - -
23/06:30am - - - - - WNW 22 24 12 13 - - -
23/06:00am - - - - - WNW 24 26 13 14 - - -
23/05:30am - - - - - WNW 20 24 11 13 - - -
23/05:00am - - - - - WNW 20 22 11 12 - - -

Other formats

Comma delimited format used in spreadsheet applications
http://www.bom.gov.au/fwo/IDV60801/IDV60801.94853.axf

JavaScript Object Notation format (JSON) in row-major order
http://www.bom.gov.au/fwo/IDV60801/IDV60801.94853.json

Data quality

Most of these data are generated automatically and are frequently updated. Quality checks on data are not normally performed. It is possible for incorrect values to appear. Refer to information at About Latest Weather Observations and please check the disclaimer before using these data.